Quick Links (Output Below):   Max & Min Temps   /   Climate Reports   /   Zone Forecasts
River Forecasts   /   Forestry Forecasts   /   Aviation Forecasts   /   Radars   /   Features

Terminal Aerodrome Forecast (Texarkana)

Pick a Site:
Arkadelphia | El Dorado | Fayetteville | Fort Smith | Harrison | Highfill | Hot Springs | Jonesboro
Little Rock | Monticello | Mountain Home | Pine Bluff | Texarkana
 Forecast 

KTXK 201744Z 2018/2118 18008KT P6SM OVC060
     FM210100 15004KT P6SM BKN070 BKN150 BKN250
     FM210300 15004KT P6SM VCTS BKN060CB OVC250
     FM210600 18005KT 5SM -TSRA BR OVC060CB
     FM211200 18004KT P6SM VCSH OVC050
     FM211500 20007KT P6SM OVC100=


 Latest METARs (Observations) 
How to Decode METARs
20Z KTXK 201953Z 14008KT 10SM BKN060 26/12 A3012 RMK AO2 SLP194
         T02560122
         
19Z KTXK 201853Z 20007KT 10SM SCT065 26/12 A3014 RMK AO2 SLP202
         T02560117
         
18Z KTXK 201753Z 16007KT 10SM OVC060 24/13 A3015 RMK AO2 SLP207
         T02440128 10250 20156 58010
         
17Z KTXK 201653Z 18008KT 10SM OVC060 24/13 A3018 RMK AO2 SLP214
         T02440128
         
16Z KTXK 201553Z 19009G14KT 10SM CLR 23/13 A3018 RMK AO2 SLP217
         T02280128
         
15Z KTXK 201453Z 18006KT 10SM CLR 21/13 A3018 RMK AO2 SLP217 T02110128
         50006
         
14Z KTXK 201353Z 18004KT 10SM OVC060 20/13 A3019 RMK AO2 SLP218
         T02000128
         
13Z KTXK 201253Z 15004KT 10SM CLR 17/12 A3018 RMK AO2 SLP216
         T01720122
         
12Z KTXK 201153Z 18005KT 10SM CLR 15/11 A3017 RMK AO2 SLP212 T01500111
         10172 20117 53005
         
11Z KTXK 201053Z 00000KT 10SM CLR 12/10 A3015 RMK AO2 SLP206
         T01220100
         
***** Today's Observations (Above) *****


Back to Main Page
http://www.srh.noaa.gov/lzk/qfcst.php

USA.gov is the U.S. government's official web portal to all federal, state and local government web resources and services.